sensor_id;sensor_type;location;lat;lon;timestamp;P1;durP1;ratioP1;P2;durP2;ratioP2
38611;SDS011;24368;52.156;20.788;2024-03-22T00:03:41;37.00;;;32.00;;
38611;SDS011;24368;52.156;20.788;2024-03-22T00:08:42;39.10;;;32.90;;
38611;SDS011;24368;52.156;20.788;2024-03-22T00:13:44;40.60;;;34.10;;
38611;SDS011;24368;52.156;20.788;2024-03-22T00:18:46;37.80;;;31.30;;
38611;SDS011;24368;52.156;20.788;2024-03-22T00:23:48;43.20;;;35.40;;
38611;SDS011;24368;52.156;20.788;2024-03-22T00:28:50;40.80;;;34.10;;
38611;SDS011;24368;52.156;20.788;2024-03-22T00:33:52;44.70;;;36.20;;
38611;SDS011;24368;52.156;20.788;2024-03-22T00:38:53;40.00;;;34.20;;
38611;SDS011;24368;52.156;20.788;2024-03-22T00:43:57;46.80;;;37.60;;
38611;SDS011;24368;52.156;20.788;2024-03-22T00:48:59;36.30;;;31.40;;
38611;SDS011;24368;52.156;20.788;2024-03-22T00:54:01;39.30;;;33.80;;
38611;SDS011;24368;52.156;20.788;2024-03-22T00:59:02;36.50;;;30.80;;
38611;SDS011;24368;52.156;20.788;2024-03-22T01:04:22;40.90;;;34.40;;
38611;SDS011;24368;52.156;20.788;2024-03-22T01:09:24;39.00;;;34.60;;
38611;SDS011;24368;52.156;20.788;2024-03-22T01:14:26;39.40;;;34.10;;
38611;SDS011;24368;52.156;20.788;2024-03-22T01:19:29;42.00;;;34.60;;
38611;SDS011;24368;52.156;20.788;2024-03-22T01:24:31;43.10;;;37.00;;
38611;SDS011;24368;52.156;20.788;2024-03-22T01:29:33;44.40;;;36.90;;
38611;SDS011;24368;52.156;20.788;2024-03-22T01:34:35;47.30;;;38.60;;
38611;SDS011;24368;52.156;20.788;2024-03-22T01:39:36;46.80;;;37.40;;
38611;SDS011;24368;52.156;20.788;2024-03-22T01:44:56;47.10;;;40.10;;
38611;SDS011;24368;52.156;20.788;2024-03-22T01:49:59;56.90;;;45.00;;
38611;SDS011;24368;52.156;20.788;2024-03-22T01:55:02;46.80;;;38.30;;
38611;SDS011;24368;52.156;20.788;2024-03-22T02:00:08;50.50;;;39.20;;
38611;SDS011;24368;52.156;20.788;2024-03-22T02:05:11;43.30;;;35.40;;
38611;SDS011;24368;52.156;20.788;2024-03-22T02:10:14;43.90;;;35.90;;
38611;SDS011;24368;52.156;20.788;2024-03-22T02:15:38;43.20;;;35.00;;
38611;SDS011;24368;52.156;20.788;2024-03-22T02:20:40;39.80;;;35.40;;
38611;SDS011;24368;52.156;20.788;2024-03-22T02:25:41;41.20;;;35.30;;
38611;SDS011;24368;52.156;20.788;2024-03-22T02:30:43;43.30;;;36.70;;
38611;SDS011;24368;52.156;20.788;2024-03-22T02:35:48;43.20;;;36.00;;
38611;SDS011;24368;52.156;20.788;2024-03-22T02:40:51;49.70;;;38.00;;
38611;SDS011;24368;52.156;20.788;2024-03-22T02:45:55;54.80;;;43.60;;
38611;SDS011;24368;52.156;20.788;2024-03-22T02:51:00;48.20;;;41.20;;
38611;SDS011;24368;52.156;20.788;2024-03-22T02:56:20;48.80;;;38.80;;
38611;SDS011;24368;52.156;20.788;2024-03-22T03:01:22;46.80;;;36.40;;
38611;SDS011;24368;52.156;20.788;2024-03-22T03:06:26;46.10;;;36.50;;
38611;SDS011;24368;52.156;20.788;2024-03-22T03:11:28;47.00;;;36.50;;
38611;SDS011;24368;52.156;20.788;2024-03-22T03:16:30;52.00;;;38.90;;
38611;SDS011;24368;52.156;20.788;2024-03-22T03:21:31;57.30;;;40.50;;
38611;SDS011;24368;52.156;20.788;2024-03-22T03:26:33;52.40;;;38.20;;
38611;SDS011;24368;52.156;20.788;2024-03-22T03:31:53;44.80;;;36.40;;
38611;SDS011;24368;52.156;20.788;2024-03-22T03:36:55;44.40;;;35.90;;
38611;SDS011;24368;52.156;20.788;2024-03-22T03:41:58;40.80;;;34.20;;
38611;SDS011;24368;52.156;20.788;2024-03-22T03:47:02;45.60;;;36.40;;
38611;SDS011;24368;52.156;20.788;2024-03-22T03:52:21;41.80;;;34.70;;
38611;SDS011;24368;52.156;20.788;2024-03-22T03:57:23;43.50;;;35.70;;
38611;SDS011;24368;52.156;20.788;2024-03-22T04:02:25;43.50;;;35.80;;
38611;SDS011;24368;52.156;20.788;2024-03-22T04:07:26;39.00;;;32.20;;
38611;SDS011;24368;52.156;20.788;2024-03-22T04:12:28;37.60;;;32.40;;
38611;SDS011;24368;52.156;20.788;2024-03-22T04:17:33;39.70;;;32.10;;
38611;SDS011;24368;52.156;20.788;2024-03-22T04:22:35;40.70;;;31.90;;
38611;SDS011;24368;52.156;20.788;2024-03-22T04:27:37;36.70;;;30.20;;
38611;SDS011;24368;52.156;20.788;2024-03-22T04:32:56;34.30;;;28.40;;
38611;SDS011;24368;52.156;20.788;2024-03-22T04:37:58;34.90;;;27.40;;
38611;SDS011;24368;52.156;20.788;2024-03-22T04:43:01;37.20;;;27.80;;
38611;SDS011;24368;52.156;20.788;2024-03-22T04:48:03;34.60;;;27.50;;
38611;SDS011;24368;52.156;20.788;2024-03-22T04:53:07;35.50;;;27.20;;
38611;SDS011;24368;52.156;20.788;2024-03-22T04:58:09;39.00;;;29.90;;
38611;SDS011;24368;52.156;20.788;2024-03-22T05:03:10;34.40;;;27.30;;
38611;SDS011;24368;52.156;20.788;2024-03-22T05:08:13;34.40;;;28.30;;
38611;SDS011;24368;52.156;20.788;2024-03-22T05:13:15;34.20;;;27.80;;
38611;SDS011;24368;52.156;20.788;2024-03-22T05:18:20;34.20;;;26.80;;
38611;SDS011;24368;52.156;20.788;2024-03-22T05:23:21;36.20;;;27.20;;
38611;SDS011;24368;52.156;20.788;2024-03-22T05:28:26;28.00;;;24.10;;
38611;SDS011;24368;52.156;20.788;2024-03-22T05:33:45;31.10;;;24.60;;
38611;SDS011;24368;52.156;20.788;2024-03-22T05:38:48;34.30;;;25.30;;
38611;SDS011;24368;52.156;20.788;2024-03-22T05:43:50;29.90;;;23.60;;
38611;SDS011;24368;52.156;20.788;2024-03-22T05:48:52;27.20;;;23.20;;
38611;SDS011;24368;52.156;20.788;2024-03-22T05:53:53;28.40;;;22.20;;
38611;SDS011;24368;52.156;20.788;2024-03-22T05:58:55;27.30;;;22.70;;
38611;SDS011;24368;52.156;20.788;2024-03-22T06:03:57;27.20;;;22.10;;
38611;SDS011;24368;52.156;20.788;2024-03-22T06:09:00;27.80;;;22.10;;
38611;SDS011;24368;52.156;20.788;2024-03-22T06:14:04;25.70;;;21.30;;
38611;SDS011;24368;52.156;20.788;2024-03-22T06:19:06;25.30;;;21.60;;
38611;SDS011;24368;52.156;20.788;2024-03-22T06:24:08;25.10;;;20.90;;
38611;SDS011;24368;52.156;20.788;2024-03-22T06:29:10;22.10;;;19.60;;
38611;SDS011;24368;52.156;20.788;2024-03-22T06:34:11;26.00;;;20.30;;
38611;SDS011;24368;52.156;20.788;2024-03-22T06:39:13;22.30;;;19.50;;
38611;SDS011;24368;52.156;20.788;2024-03-22T06:44:17;23.70;;;19.40;;
38611;SDS011;24368;52.156;20.788;2024-03-22T06:49:19;23.40;;;19.30;;
38611;SDS011;24368;52.156;20.788;2024-03-22T06:54:38;23.10;;;19.90;;
38611;SDS011;24368;52.156;20.788;2024-03-22T06:59:57;23.70;;;20.20;;
38611;SDS011;24368;52.156;20.788;2024-03-22T07:04:59;21.00;;;17.10;;
38611;SDS011;24368;52.156;20.788;2024-03-22T07:10:18;22.00;;;18.30;;
38611;SDS011;24368;52.156;20.788;2024-03-22T07:15:22;24.00;;;20.40;;
38611;SDS011;24368;52.156;20.788;2024-03-22T07:20:25;30.10;;;24.70;;
38611;SDS011;24368;52.156;20.788;2024-03-22T07:25:27;26.80;;;22.00;;
38611;SDS011;24368;52.156;20.788;2024-03-22T07:30:30;27.30;;;24.00;;
38611;SDS011;24368;52.156;20.788;2024-03-22T07:35:34;29.70;;;25.00;;
38611;SDS011;24368;52.156;20.788;2024-03-22T07:40:36;25.40;;;22.30;;
38611;SDS011;24368;52.156;20.788;2024-03-22T07:45:38;28.10;;;24.00;;
38611;SDS011;24368;52.156;20.788;2024-03-22T07:50:40;24.10;;;20.70;;
38611;SDS011;24368;52.156;20.788;2024-03-22T07:55:42;22.90;;;19.00;;
38611;SDS011;24368;52.156;20.788;2024-03-22T08:00:44;25.10;;;20.10;;
38611;SDS011;24368;52.156;20.788;2024-03-22T08:05:45;22.70;;;19.20;;
38611;SDS011;24368;52.156;20.788;2024-03-22T08:10:47;22.10;;;19.20;;
38611;SDS011;24368;52.156;20.788;2024-03-22T08:15:49;23.30;;;19.70;;
38611;SDS011;24368;52.156;20.788;2024-03-22T08:20:52;22.70;;;20.20;;
38611;SDS011;24368;52.156;20.788;2024-03-22T08:25:55;26.00;;;21.50;;
38611;SDS011;24368;52.156;20.788;2024-03-22T08:36:06;31.70;;;24.90;;
38611;SDS011;24368;52.156;20.788;2024-03-22T08:41:08;26.60;;;23.30;;
38611;SDS011;24368;52.156;20.788;2024-03-22T08:46:09;26.60;;;22.00;;
38611;SDS011;24368;52.156;20.788;2024-03-22T08:51:11;25.20;;;21.30;;
38611;SDS011;24368;52.156;20.788;2024-03-22T08:56:13;22.60;;;19.30;;
38611;SDS011;24368;52.156;20.788;2024-03-22T09:01:15;24.00;;;19.70;;
38611;SDS011;24368;52.156;20.788;2024-03-22T09:06:17;20.30;;;18.00;;
38611;SDS011;24368;52.156;20.788;2024-03-22T09:11:19;22.50;;;19.80;;
38611;SDS011;24368;52.156;20.788;2024-03-22T09:16:20;22.60;;;19.80;;
38611;SDS011;24368;52.156;20.788;2024-03-22T09:21:22;21.60;;;18.10;;
38611;SDS011;24368;52.156;20.788;2024-03-22T09:26:26;21.70;;;19.30;;
38611;SDS011;24368;52.156;20.788;2024-03-22T09:31:28;24.40;;;21.00;;
38611;SDS011;24368;52.156;20.788;2024-03-22T09:36:29;23.30;;;19.70;;
38611;SDS011;24368;52.156;20.788;2024-03-22T09:41:37;24.50;;;21.60;;
38611;SDS011;24368;52.156;20.788;2024-03-22T09:46:48;24.70;;;21.80;;
38611;SDS011;24368;52.156;20.788;2024-03-22T09:51:52;23.40;;;20.70;;
38611;SDS011;24368;52.156;20.788;2024-03-22T09:57:15;25.90;;;22.50;;
38611;SDS011;24368;52.156;20.788;2024-03-22T10:02:17;22.50;;;20.10;;
38611;SDS011;24368;52.156;20.788;2024-03-22T10:07:22;25.00;;;21.50;;
38611;SDS011;24368;52.156;20.788;2024-03-22T10:12:25;25.40;;;21.80;;
38611;SDS011;24368;52.156;20.788;2024-03-22T10:17:27;22.60;;;19.80;;
38611;SDS011;24368;52.156;20.788;2024-03-22T10:22:30;20.30;;;18.10;;
38611;SDS011;24368;52.156;20.788;2024-03-22T10:27:32;20.60;;;18.40;;
38611;SDS011;24368;52.156;20.788;2024-03-22T10:32:34;22.50;;;20.20;;
38611;SDS011;24368;52.156;20.788;2024-03-22T10:37:37;23.80;;;21.60;;
38611;SDS011;24368;52.156;20.788;2024-03-22T10:42:39;26.30;;;19.90;;
38611;SDS011;24368;52.156;20.788;2024-03-22T10:47:42;18.20;;;16.10;;
38611;SDS011;24368;52.156;20.788;2024-03-22T10:52:52;21.10;;;17.80;;
38611;SDS011;24368;52.156;20.788;2024-03-22T10:57:57;19.70;;;17.60;;
38611;SDS011;24368;52.156;20.788;2024-03-22T11:03:04;20.20;;;18.10;;
38611;SDS011;24368;52.156;20.788;2024-03-22T11:08:06;18.80;;;16.80;;
38611;SDS011;24368;52.156;20.788;2024-03-22T11:13:08;20.10;;;17.90;;
38611;SDS011;24368;52.156;20.788;2024-03-22T11:18:10;21.70;;;19.10;;
38611;SDS011;24368;52.156;20.788;2024-03-22T11:23:12;19.50;;;17.10;;
38611;SDS011;24368;52.156;20.788;2024-03-22T11:28:15;18.50;;;16.50;;
38611;SDS011;24368;52.156;20.788;2024-03-22T11:33:17;25.70;;;21.60;;
38611;SDS011;24368;52.156;20.788;2024-03-22T11:38:25;18.10;;;16.20;;
38611;SDS011;24368;52.156;20.788;2024-03-22T11:43:28;17.30;;;15.50;;
38611;SDS011;24368;52.156;20.788;2024-03-22T11:48:33;15.10;;;13.20;;
38611;SDS011;24368;52.156;20.788;2024-03-22T11:53:48;13.00;;;11.80;;
38611;SDS011;24368;52.156;20.788;2024-03-22T11:59:11;11.40;;;9.90;;
38611;SDS011;24368;52.156;20.788;2024-03-22T12:04:13;11.60;;;10.20;;
38611;SDS011;24368;52.156;20.788;2024-03-22T12:09:18;10.90;;;9.80;;
38611;SDS011;24368;52.156;20.788;2024-03-22T12:14:19;11.90;;;9.80;;
38611;SDS011;24368;52.156;20.788;2024-03-22T12:19:21;13.10;;;10.90;;
38611;SDS011;24368;52.156;20.788;2024-03-22T12:24:26;11.30;;;10.10;;
38611;SDS011;24368;52.156;20.788;2024-03-22T12:29:28;11.40;;;10.20;;
38611;SDS011;24368;52.156;20.788;2024-03-22T12:39:56;11.30;;;10.20;;
38611;SDS011;24368;52.156;20.788;2024-03-22T12:44:58;13.20;;;11.80;;
38611;SDS011;24368;52.156;20.788;2024-03-22T12:50:01;12.50;;;11.20;;
38611;SDS011;24368;52.156;20.788;2024-03-22T12:55:07;11.80;;;10.50;;
38611;SDS011;24368;52.156;20.788;2024-03-22T13:00:09;12.20;;;11.00;;
38611;SDS011;24368;52.156;20.788;2024-03-22T13:05:19;13.80;;;12.30;;
38611;SDS011;24368;52.156;20.788;2024-03-22T13:10:20;15.80;;;12.80;;
38611;SDS011;24368;52.156;20.788;2024-03-22T13:15:25;12.80;;;11.50;;
38611;SDS011;24368;52.156;20.788;2024-03-22T13:20:28;15.40;;;13.80;;
38611;SDS011;24368;52.156;20.788;2024-03-22T13:25:48;14.40;;;12.90;;
38611;SDS011;24368;52.156;20.788;2024-03-22T13:30:58;14.50;;;13.00;;
38611;SDS011;24368;52.156;20.788;2024-03-22T13:36:02;14.40;;;12.90;;
38611;SDS011;24368;52.156;20.788;2024-03-22T13:41:05;13.50;;;12.20;;
38611;SDS011;24368;52.156;20.788;2024-03-22T13:46:07;13.90;;;12.40;;
38611;SDS011;24368;52.156;20.788;2024-03-22T13:51:09;14.40;;;13.00;;
38611;SDS011;24368;52.156;20.788;2024-03-22T13:56:29;13.60;;;12.30;;
38611;SDS011;24368;52.156;20.788;2024-03-22T14:01:32;14.00;;;12.60;;
38611;SDS011;24368;52.156;20.788;2024-03-22T14:06:38;13.90;;;12.50;;
38611;SDS011;24368;52.156;20.788;2024-03-22T14:11:40;15.80;;;14.30;;
38611;SDS011;24368;52.156;20.788;2024-03-22T14:16:46;16.50;;;14.80;;
38611;SDS011;24368;52.156;20.788;2024-03-22T14:21:48;15.20;;;13.80;;
38611;SDS011;24368;52.156;20.788;2024-03-22T14:26:50;17.80;;;13.70;;
38611;SDS011;24368;52.156;20.788;2024-03-22T14:32:00;17.00;;;15.30;;
38611;SDS011;24368;52.156;20.788;2024-03-22T14:37:19;14.80;;;13.30;;
38611;SDS011;24368;52.156;20.788;2024-03-22T14:42:21;17.00;;;14.80;;
38611;SDS011;24368;52.156;20.788;2024-03-22T14:47:41;15.80;;;14.20;;
38611;SDS011;24368;52.156;20.788;2024-03-22T14:52:42;14.00;;;12.70;;
38611;SDS011;24368;52.156;20.788;2024-03-22T14:57:44;14.60;;;13.20;;
38611;SDS011;24368;52.156;20.788;2024-03-22T15:02:46;15.70;;;14.20;;
38611;SDS011;24368;52.156;20.788;2024-03-22T15:07:48;17.90;;;16.00;;
38611;SDS011;24368;52.156;20.788;2024-03-22T15:12:50;17.80;;;15.70;;
38611;SDS011;24368;52.156;20.788;2024-03-22T15:17:52;15.90;;;14.40;;
38611;SDS011;24368;52.156;20.788;2024-03-22T15:22:57;16.40;;;14.40;;
38611;SDS011;24368;52.156;20.788;2024-03-22T15:27:59;16.60;;;14.80;;
38611;SDS011;24368;52.156;20.788;2024-03-22T15:33:01;17.70;;;15.90;;
38611;SDS011;24368;52.156;20.788;2024-03-22T15:38:04;17.00;;;15.30;;
38611;SDS011;24368;52.156;20.788;2024-03-22T15:43:06;16.10;;;14.50;;
38611;SDS011;24368;52.156;20.788;2024-03-22T15:48:09;16.20;;;14.60;;
38611;SDS011;24368;52.156;20.788;2024-03-22T15:53:41;16.20;;;14.60;;
38611;SDS011;24368;52.156;20.788;2024-03-22T15:58:48;19.90;;;17.80;;
38611;SDS011;24368;52.156;20.788;2024-03-22T16:03:50;17.30;;;15.70;;
38611;SDS011;24368;52.156;20.788;2024-03-22T16:08:53;14.80;;;13.40;;
38611;SDS011;24368;52.156;20.788;2024-03-22T16:13:55;16.10;;;14.40;;
38611;SDS011;24368;52.156;20.788;2024-03-22T16:18:57;16.10;;;14.60;;
38611;SDS011;24368;52.156;20.788;2024-03-22T16:23:59;14.90;;;13.50;;
38611;SDS011;24368;52.156;20.788;2024-03-22T16:29:01;14.70;;;13.30;;
38611;SDS011;24368;52.156;20.788;2024-03-22T16:34:05;16.10;;;14.50;;
38611;SDS011;24368;52.156;20.788;2024-03-22T16:39:07;16.10;;;14.50;;
38611;SDS011;24368;52.156;20.788;2024-03-22T16:44:09;16.60;;;14.90;;
38611;SDS011;24368;52.156;20.788;2024-03-22T16:49:11;14.20;;;12.90;;
38611;SDS011;24368;52.156;20.788;2024-03-22T16:54:13;14.50;;;13.10;;
38611;SDS011;24368;52.156;20.788;2024-03-22T16:59:15;13.90;;;12.50;;
38611;SDS011;24368;52.156;20.788;2024-03-22T17:04:19;14.80;;;13.40;;
38611;SDS011;24368;52.156;20.788;2024-03-22T17:09:23;18.50;;;16.50;;
38611;SDS011;24368;52.156;20.788;2024-03-22T17:14:25;15.40;;;13.90;;
38611;SDS011;24368;52.156;20.788;2024-03-22T17:19:27;17.80;;;16.00;;
38611;SDS011;24368;52.156;20.788;2024-03-22T17:24:29;17.70;;;15.40;;
38611;SDS011;24368;52.156;20.788;2024-03-22T17:29:32;20.20;;;16.80;;
38611;SDS011;24368;52.156;20.788;2024-03-22T17:34:36;18.00;;;16.30;;
38611;SDS011;24368;52.156;20.788;2024-03-22T17:39:38;14.80;;;13.30;;
38611;SDS011;24368;52.156;20.788;2024-03-22T17:44:40;15.00;;;13.40;;
38611;SDS011;24368;52.156;20.788;2024-03-22T17:49:52;15.20;;;13.50;;
38611;SDS011;24368;52.156;20.788;2024-03-22T17:54:54;16.40;;;14.70;;
38611;SDS011;24368;52.156;20.788;2024-03-22T17:59:56;16.10;;;14.40;;
38611;SDS011;24368;52.156;20.788;2024-03-22T18:04:58;16.70;;;14.90;;
38611;SDS011;24368;52.156;20.788;2024-03-22T18:10:02;15.40;;;13.90;;
38611;SDS011;24368;52.156;20.788;2024-03-22T18:15:04;16.10;;;14.40;;
38611;SDS011;24368;52.156;20.788;2024-03-22T18:20:07;13.60;;;12.20;;
38611;SDS011;24368;52.156;20.788;2024-03-22T18:25:10;14.30;;;12.90;;
38611;SDS011;24368;52.156;20.788;2024-03-22T18:30:12;17.00;;;14.10;;
38611;SDS011;24368;52.156;20.788;2024-03-22T18:35:14;16.50;;;13.70;;
38611;SDS011;24368;52.156;20.788;2024-03-22T18:40:22;15.90;;;14.10;;
38611;SDS011;24368;52.156;20.788;2024-03-22T18:45:26;14.90;;;13.10;;
38611;SDS011;24368;52.156;20.788;2024-03-22T18:50:28;16.70;;;14.20;;
38611;SDS011;24368;52.156;20.788;2024-03-22T18:55:36;17.00;;;14.00;;
38611;SDS011;24368;52.156;20.788;2024-03-22T19:00:42;16.90;;;14.50;;
38611;SDS011;24368;52.156;20.788;2024-03-22T19:05:46;17.00;;;14.20;;
38611;SDS011;24368;52.156;20.788;2024-03-22T19:10:51;15.60;;;14.00;;
38611;SDS011;24368;52.156;20.788;2024-03-22T19:15:56;17.40;;;14.50;;
38611;SDS011;24368;52.156;20.788;2024-03-22T19:20:58;18.50;;;15.40;;
38611;SDS011;24368;52.156;20.788;2024-03-22T19:26:00;15.70;;;14.10;;
38611;SDS011;24368;52.156;20.788;2024-03-22T19:31:02;16.10;;;14.40;;
38611;SDS011;24368;52.156;20.788;2024-03-22T19:36:04;13.80;;;12.30;;
38611;SDS011;24368;52.156;20.788;2024-03-22T19:41:06;14.80;;;13.10;;
38611;SDS011;24368;52.156;20.788;2024-03-22T19:46:15;17.30;;;13.00;;
38611;SDS011;24368;52.156;20.788;2024-03-22T19:51:17;13.90;;;12.20;;
38611;SDS011;24368;52.156;20.788;2024-03-22T19:56:19;17.00;;;13.80;;
38611;SDS011;24368;52.156;20.788;2024-03-22T20:01:21;16.00;;;13.00;;
38611;SDS011;24368;52.156;20.788;2024-03-22T20:06:23;14.50;;;13.00;;
38611;SDS011;24368;52.156;20.788;2024-03-22T20:11:26;15.60;;;13.10;;
38611;SDS011;24368;52.156;20.788;2024-03-22T20:16:29;17.40;;;14.30;;
38611;SDS011;24368;52.156;20.788;2024-03-22T20:21:31;16.00;;;13.20;;
38611;SDS011;24368;52.156;20.788;2024-03-22T20:26:33;14.30;;;11.60;;
38611;SDS011;24368;52.156;20.788;2024-03-22T20:31:35;12.60;;;11.30;;
38611;SDS011;24368;52.156;20.788;2024-03-22T20:36:40;13.60;;;12.20;;
